Time;durP1;ratioP1;P1;durP2;ratioP2;P2;SDS_P1;SDS_P2;PMS_P1;PMS_P2;Temp;Humidity;BMP_temperature;BMP_pressure;BME280_temperature;BME280_humidity;BME280_pressure;Samples;Min_cycle;Max_cycle;Signal;HPM_P1;HPM_P2
2020/12/27 00:00:21;;;;;;;12.07;10.90;;;;;;;-4.25;100.00;98075.22;4993149;28;20459;-75
2020/12/27 00:02:48;;;;;;;14.10;10.50;;;;;;;-4.12;100.00;98065.16;4993489;28;20466;-76
2020/12/27 00:05:16;;;;;;;13.47;11.60;;;;;;;-4.25;100.00;98056.28;4993209;28;20509;-76
2020/12/27 00:07:46;;;;;;;16.43;11.23;;;;;;;-4.33;100.00;98054.03;4996502;28;20447;-75
2020/12/27 00:10:14;;;;;;;11.27;10.17;;;;;;;-4.42;100.00;98044.91;4993969;28;21008;-73
2020/12/27 00:12:41;;;;;;;10.73;9.60;;;;;;;-4.52;100.00;98036.75;4994450;28;20460;-74
2020/12/27 00:15:07;;;;;;;10.37;9.37;;;;;;;-4.45;100.00;98029.53;4990179;28;20445;-76
2020/12/27 00:17:35;;;;;;;12.30;9.47;;;;;;;-4.39;100.00;98024.06;4994615;28;20460;-74
2020/12/27 00:20:04;;;;;;;11.80;10.40;;;;;;;-4.51;100.00;98020.31;4988432;28;20977;-76
2020/12/27 00:22:31;;;;;;;10.97;8.77;;;;;;;-4.59;100.00;98016.38;4985831;28;20444;-73
2020/12/27 00:24:58;;;;;;;12.23;9.70;;;;;;;-4.60;100.00;98009.53;4989697;28;20933;-75
2020/12/27 00:27:25;;;;;;;9.80;8.77;;;;;;;-4.64;100.00;98001.06;4988735;28;20456;-75
2020/12/27 00:29:52;;;;;;;10.57;8.70;;;;;;;-4.68;100.00;97994.34;4989723;28;20575;-76
2020/12/27 00:32:19;;;;;;;9.10;8.20;;;;;;;-4.67;100.00;97994.31;4990908;28;20460;-74
2020/12/27 00:34:52;;;;;;;9.13;8.20;;;;;;;-4.71;100.00;97995.34;4991626;28;20486;-73
2020/12/27 00:37:19;;;;;;;9.73;8.73;;;;;;;-4.63;100.00;97983.81;4993176;28;20449;-75
2020/12/27 00:39:46;;;;;;;11.00;8.77;;;;;;;-4.61;100.00;97977.66;4998583;28;20462;-75
2020/12/27 00:42:13;;;;;;;10.57;8.27;;;;;;;-4.76;100.00;97968.00;4998026;28;20449;-74
2020/12/27 00:44:40;;;;;;;9.70;8.73;;;;;;;-4.77;100.00;97964.56;4997453;28;20459;-75
2020/12/27 00:47:07;;;;;;;10.20;7.93;;;;;;;-4.72;100.00;97959.19;4994684;28;20453;-76
2020/12/27 00:49:34;;;;;;;11.87;8.13;;;;;;;-4.66;100.00;97961.50;4995592;28;20952;-75
2020/12/27 00:52:02;;;;;;;10.27;8.67;;;;;;;-4.71;100.00;97956.56;4993755;28;20472;-75
2020/12/27 00:54:29;;;;;;;9.57;8.60;;;;;;;-4.73;100.00;97952.34;4991107;28;20459;-73
2020/12/27 00:56:56;;;;;;;10.70;9.37;;;;;;;-4.78;100.00;97942.19;4991859;28;20977;-75
2020/12/27 00:59:23;;;;;;;9.07;8.00;;;;;;;-4.74;100.00;97938.56;4999275;28;20465;-75
2020/12/27 01:01:54;;;;;;;9.43;8.53;;;;;;;-4.71;100.00;97929.84;5000937;28;20449;-76
2020/12/27 01:04:21;;;;;;;12.23;8.67;;;;;;;-4.74;100.00;97935.97;4994922;28;20459;-75
2020/12/27 01:06:48;;;;;;;9.40;8.47;;;;;;;-4.82;100.00;97930.31;4990432;28;21028;-76
2020/12/27 01:09:16;;;;;;;9.47;8.47;;;;;;;-4.78;100.00;97934.44;4993549;28;20507;-76
2020/12/27 01:11:45;;;;;;;9.33;8.37;;;;;;;-4.82;100.00;97930.31;4994419;28;20495;-76
2020/12/27 01:14:14;;;;;;;7.77;7.07;;;;;;;-4.91;100.00;97918.69;4995440;28;20558;-74
2020/12/27 01:16:47;;;;;;;11.80;8.30;;;;;;;-4.81;100.00;97909.59;4993713;28;20456;-75
2020/12/27 01:19:14;;;;;;;9.63;7.47;;;;;;;-4.74;100.00;97911.88;4994878;28;21148;-75
2020/12/27 01:21:42;;;;;;;9.10;7.57;;;;;;;-4.81;100.00;97903.56;4991739;28;20945;-74
2020/12/27 01:24:11;;;;;;;10.13;9.13;;;;;;;-4.86;100.00;97903.78;4991835;28;20467;-75
2020/12/27 01:26:39;;;;;;;8.47;7.63;;;;;;;-4.69;100.00;97902.16;4997600;28;20447;-76
2020/12/27 01:29:06;;;;;;;8.97;8.07;;;;;;;-4.62;100.00;97903.56;4988591;28;20484;-75
2020/12/27 01:31:33;;;;;;;8.87;7.97;;;;;;;-4.46;100.00;97893.34;4990990;28;20519;-75
2020/12/27 01:34:00;;;;;;;8.93;7.83;;;;;;;-4.37;100.00;97884.31;4994527;28;20904;-75
2020/12/27 01:36:28;;;;;;;9.17;8.10;;;;;;;-4.57;100.00;97877.50;4987672;28;20444;-76
2020/12/27 01:38:55;;;;;;;10.13;7.67;;;;;;;-4.60;100.00;97869.88;4993313;28;20471;-76
2020/12/27 01:41:22;;;;;;;10.40;8.10;;;;;;;-4.74;100.00;97865.34;4989317;28;20448;-75
2020/12/27 01:44:04;;;;;;;8.57;7.70;;;;;;;-4.75;100.00;97856.72;4993705;28;20597;-75
2020/12/27 01:46:32;;;;;;;8.73;7.80;;;;;;;-4.77;100.00;97842.22;4997448;28;20724;-76
2020/12/27 01:48:59;;;;;;;10.10;7.07;;;;;;;-4.81;100.00;97833.75;4991563;28;20491;-76
2020/12/27 01:51:26;;;;;;;9.30;7.43;;;;;;;-4.81;100.00;97824.25;4994202;28;20672;-75
2020/12/27 01:53:53;;;;;;;7.77;6.97;;;;;;;-4.83;100.00;97818.31;4990451;28;20455;-74
2020/12/27 01:56:27;;;;;;;8.30;7.50;;;;;;;-4.90;100.00;97805.75;4993106;28;20475;-76
2020/12/27 01:58:58;;;;;;;7.97;7.17;;;;;;;-4.90;100.00;97805.75;4994148;28;20475;-76
2020/12/27 02:01:26;;;;;;;7.90;7.10;;;;;;;-5.00;100.00;97803.59;4997250;28;20508;-75
2020/12/27 02:03:53;;;;;;;8.83;7.23;;;;;;;-4.91;100.00;97797.19;4991531;28;20456;-75
2020/12/27 02:06:20;;;;;;;8.50;7.07;;;;;;;-4.87;100.00;97797.84;4994734;28;20822;-76
2020/12/27 02:08:49;;;;;;;7.43;6.77;;;;;;;-4.94;100.00;97790.38;4999316;28;20857;-74
2020/12/27 02:11:19;;;;;;;7.67;6.87;;;;;;;-4.96;100.00;97791.34;4987416;28;20452;-76
2020/12/27 02:13:47;;;;;;;7.20;6.50;;;;;;;-4.92;100.00;97784.31;4992287;28;20732;-75
2020/12/27 02:16:19;;;;;;;7.63;6.80;;;;;;;-4.98;100.00;97783.69;4993266;28;20456;-76
2020/12/27 02:18:47;;;;;;;11.57;7.90;;;;;;;-5.03;100.00;97785.66;4988108;28;20460;-75
2020/12/27 02:21:14;;;;;;;7.87;7.03;;;;;;;-5.07;100.00;97773.78;4995764;28;20444;-77
2020/12/27 02:23:41;;;;;;;7.93;6.80;;;;;;;-4.96;100.00;97760.34;4992675;28;20937;-74
2020/12/27 02:26:10;;;;;;;7.63;6.83;;;;;;;-4.98;100.00;97757.84;4999191;28;20453;-77
2020/12/27 02:28:37;;;;;;;7.17;6.27;;;;;;;-5.00;100.00;97740.72;5004588;28;20525;-76
2020/12/27 02:31:04;;;;;;;8.67;7.73;;;;;;;-5.09;100.00;97736.84;4998374;28;20827;-74
2020/12/27 02:33:31;;;;;;;7.37;6.67;;;;;;;-5.16;100.00;97725.09;4995755;28;20958;-75
2020/12/27 02:36:06;;;;;;;8.47;7.33;;;;;;;-5.14;100.00;97721.56;4981955;28;20940;-74
2020/12/27 02:38:33;;;;;;;7.53;6.83;;;;;;;-5.10;100.00;97711.91;4996936;28;21007;-76
2020/12/27 02:41:00;;;;;;;7.23;6.53;;;;;;;-5.14;100.00;97707.78;4991176;28;20479;-76
2020/12/27 02:43:28;;;;;;;8.57;7.00;;;;;;;-5.13;100.00;97705.13;4986696;28;20954;-75
2020/12/27 02:45:55;;;;;;;6.80;6.20;;;;;;;-5.10;100.00;97691.25;4990888;28;21031;-76
2020/12/27 02:48:22;;;;;;;7.10;6.40;;;;;;;-5.04;100.00;97672.84;4994947;28;20586;-76
2020/12/27 02:50:49;;;;;;;7.00;6.30;;;;;;;-5.01;100.00;97672.69;4991509;28;20568;-75
2020/12/27 02:53:16;;;;;;;8.23;7.10;;;;;;;-5.04;100.00;97665.09;4993713;28;20437;-76
2020/12/27 02:55:43;;;;;;;7.20;6.50;;;;;;;-5.06;100.00;97647.97;4994443;28;20468;-77
2020/12/27 02:58:10;;;;;;;7.87;6.33;;;;;;;-5.11;100.00;97655.97;4996006;28;20482;-75
2020/12/27 03:00:38;;;;;;;8.93;6.87;;;;;;;-5.05;100.00;97642.75;4992562;28;20448;-76
2020/12/27 03:03:05;;;;;;;7.60;6.73;;;;;;;-5.12;100.00;97644.78;4988457;28;20471;-75
2020/12/27 03:05:32;;;;;;;9.33;6.93;;;;;;;-5.01;100.00;97633.94;4987407;28;20456;-75
2020/12/27 03:07:59;;;;;;;7.47;6.63;;;;;;;-4.92;100.00;97630.06;4992241;28;20940;-74
2020/12/27 03:10:26;;;;;;;6.07;5.57;;;;;;;-4.98;100.00;97628.63;4994815;28;20490;-75
2020/12/27 03:12:53;;;;;;;7.07;6.33;;;;;;;-4.89;100.00;97624.75;4992016;28;20448;-75
2020/12/27 03:15:20;;;;;;;8.23;7.30;;;;;;;-5.03;100.00;97614.22;4989264;28;20743;-75
2020/12/27 03:17:48;;;;;;;7.23;6.53;;;;;;;-4.97;100.00;97608.75;4987898;28;20467;-75
2020/12/27 03:20:16;;;;;;;9.07;6.63;;;;;;;-5.02;100.00;97605.56;4989957;28;20456;-75
2020/12/27 03:22:44;;;;;;;6.90;6.20;;;;;;;-4.92;100.00;97591.28;4988676;28;20461;-75
2020/12/27 03:25:11;;;;;;;6.63;6.13;;;;;;;-5.00;100.00;97593.41;4991472;28;20467;-75
2020/12/27 03:27:38;;;;;;;6.13;5.63;;;;;;;-4.99;100.00;97597.66;4992094;28;20459;-72
2020/12/27 03:30:06;;;;;;;6.57;5.93;;;;;;;-5.04;100.00;97590.16;4989170;28;20484;-77
2020/12/27 03:32:33;;;;;;;7.07;6.47;;;;;;;-5.09;100.00;97580.03;4985387;28;20463;-76
2020/12/27 03:35:01;;;;;;;6.40;5.83;;;;;;;-5.05;100.00;97588.47;4989044;28;20449;-76
2020/12/27 03:37:31;;;;;;;7.37;6.57;;;;;;;-4.99;100.00;97580.41;4990668;28;20789;-76
2020/12/27 03:39:58;;;;;;;6.10;5.60;;;;;;;-5.00;100.00;97573.56;4993859;28;20468;-77
2020/12/27 03:42:25;;;;;;;6.57;5.97;;;;;;;-4.98;100.00;97571.75;4992394;28;20439;-75
2020/12/27 03:44:52;;;;;;;6.70;6.13;;;;;;;-4.95;100.00;97569.00;4990203;28;20725;-76
2020/12/27 03:47:19;;;;;;;6.17;5.57;;;;;;;-4.91;100.00;97558.50;4989494;28;21039;-75
2020/12/27 03:49:46;;;;;;;6.03;5.47;;;;;;;-4.96;100.00;97556.16;4989357;28;20484;-76
2020/12/27 03:52:14;;;;;;;8.13;5.90;;;;;;;-5.06;100.00;97554.94;4989373;28;21037;-76
2020/12/27 03:54:41;;;;;;;6.23;5.47;;;;;;;-4.97;100.00;97547.56;4984141;28;20855;-75
2020/12/27 03:57:08;;;;;;;7.10;6.17;;;;;;;-4.99;100.00;97533.03;4987203;28;20451;-75
2020/12/27 03:59:36;;;;;;;6.27;5.73;;;;;;;-5.00;100.00;97524.47;4988132;28;20496;-76
2020/12/27 04:02:03;;;;;;;6.07;5.67;;;;;;;-5.02;100.00;97530.63;4988207;28;20452;-76
2020/12/27 04:04:30;;;;;;;6.77;6.00;;;;;;;-4.99;100.00;97523.56;4989728;28;21033;-75
2020/12/27 04:07:04;;;;;;;6.47;5.97;;;;;;;-5.03;100.00;97523.78;4989971;28;20555;-75
2020/12/27 04:09:32;;;;;;;6.13;5.53;;;;;;;-5.08;100.00;97524.03;4987543;28;20500;-75
2020/12/27 04:11:59;;;;;;;6.93;6.33;;;;;;;-5.15;100.00;97532.97;4992197;28;20773;-74
2020/12/27 04:14:26;;;;;;;6.87;6.17;;;;;;;-5.24;100.00;97532.53;4992700;28;20448;-76
2020/12/27 04:16:53;;;;;;;6.63;6.10;;;;;;;-5.12;100.00;97528.50;4992794;28;20982;-76
2020/12/27 04:19:20;;;;;;;8.37;6.40;;;;;;;-5.14;100.00;97521.72;4993303;28;20464;-75
2020/12/27 04:21:47;;;;;;;6.30;5.77;;;;;;;-5.09;100.00;97512.84;4988494;28;20455;-74
2020/12/27 04:24:16;;;;;;;6.20;5.70;;;;;;;-5.07;100.00;97506.75;4992438;28;20460;-76
2020/12/27 04:26:44;;;;;;;6.80;6.17;;;;;;;-5.16;100.00;97495.13;4991928;28;20456;-76
2020/12/27 04:29:11;;;;;;;6.07;5.50;;;;;;;-5.06;100.00;97488.59;4991714;28;20508;-75
2020/12/27 04:31:38;;;;;;;6.63;6.03;;;;;;;-5.01;100.00;97481.44;4990527;28;20478;-74
2020/12/27 04:34:05;;;;;;;6.67;6.07;;;;;;;-5.12;100.00;97475.97;4993258;28;20453;-75
2020/12/27 04:36:32;;;;;;;6.37;5.77;;;;;;;-5.19;100.00;97483.22;4991896;28;20958;-75
2020/12/27 04:38:59;;;;;;;6.73;6.13;;;;;;;-5.13;100.00;97476.91;4992935;28;20465;-74
2020/12/27 04:41:26;;;;;;;6.50;5.90;;;;;;;-5.12;100.00;97469.06;4996432;28;20452;-76
2020/12/27 04:43:55;;;;;;;8.70;5.57;;;;;;;-5.13;100.00;97467.41;4993499;28;21146;-75
2020/12/27 04:46:22;;;;;;;5.80;5.30;;;;;;;-5.08;100.00;97456.84;4993927;28;20709;-75
2020/12/27 04:48:51;;;;;;;6.50;6.00;;;;;;;-5.05;100.00;97454.09;4995873;28;20511;-75
2020/12/27 04:51:18;;;;;;;7.53;6.77;;;;;;;-5.01;100.00;97447.00;4995333;28;20815;-76
2020/12/27 04:53:45;;;;;;;6.23;5.60;;;;;;;-5.00;100.00;97449.53;4986346;28;20464;-75
2020/12/27 04:56:14;;;;;;;8.10;5.93;;;;;;;-4.98;100.00;97437.34;4990053;28;20480;-75
2020/12/27 04:58:41;;;;;;;6.87;6.27;;;;;;;-5.07;100.00;97435.25;4989075;28;20492;-77
2020/12/27 05:01:09;;;;;;;6.27;5.77;;;;;;;-5.03;100.00;97416.09;4992135;28;20941;-75
2020/12/27 05:03:36;;;;;;;6.17;5.67;;;;;;;-5.03;100.00;97410.06;4993272;28;20448;-75
2020/12/27 05:06:03;;;;;;;6.10;5.57;;;;;;;-5.00;100.00;97394.41;4993635;28;20770;-76
2020/12/27 05:08:30;;;;;;;6.10;5.57;;;;;;;-4.87;100.00;97397.16;4999782;28;20480;-75
2020/12/27 05:10:57;;;;;;;6.30;5.87;;;;;;;-4.95;100.00;97395.84;4995412;28;20483;-74
2020/12/27 05:13:24;;;;;;;7.03;6.40;;;;;;;-5.09;100.00;97388.00;4997523;28;20451;-75
2020/12/27 05:15:51;;;;;;;6.90;6.30;;;;;;;-5.04;100.00;97385.16;4994965;28;20456;-75
2020/12/27 05:18:20;;;;;;;6.63;5.70;;;;;;;-4.98;100.00;97374.47;4994783;28;20472;-76
2020/12/27 05:20:47;;;;;;;6.83;6.20;;;;;;;-5.01;100.00;97378.06;4996396;28;20897;-75
2020/12/27 05:23:15;;;;;;;5.83;5.23;;;;;;;-4.92;100.00;97368.16;4995098;28;20453;-75
2020/12/27 05:25:42;;;;;;;7.03;5.73;;;;;;;-5.10;100.00;97363.88;5002844;28;20436;-75
2020/12/27 05:28:11;;;;;;;6.40;5.87;;;;;;;-5.05;100.00;97366.25;4996950;28;20496;-74
2020/12/27 05:30:43;;;;;;;6.57;5.97;;;;;;;-5.02;100.00;97362.63;5001309;28;20832;-73
2020/12/27 05:33:11;;;;;;;6.77;6.17;;;;;;;-5.11;100.00;97349.31;4997194;28;20444;-75
2020/12/27 05:35:39;;;;;;;7.43;6.53;;;;;;;-5.07;100.00;97346.56;4998106;28;20778;-74
2020/12/27 05:38:08;;;;;;;6.50;6.00;;;;;;;-5.00;100.00;97348.72;4995041;28;20949;-75
2020/12/27 05:40:36;;;;;;;6.93;6.10;;;;;;;-4.96;100.00;97342.47;5002851;28;20931;-75
2020/12/27 05:43:06;;;;;;;6.70;6.00;;;;;;;-4.87;100.00;97338.56;4988579;28;20457;-73
2020/12/27 05:45:33;;;;;;;6.63;5.93;;;;;;;-4.97;100.00;97333.06;4987600;28;20448;-76
2020/12/27 05:48:01;;;;;;;6.90;6.00;;;;;;;-5.00;100.00;97343.56;4990506;28;20445;-73
2020/12/27 05:50:30;;;;;;;6.43;5.83;;;;;;;-4.85;100.00;97334.16;4991833;28;20484;-74
2020/12/27 05:53:00;;;;;;;6.43;5.93;;;;;;;-4.88;99.49;97326.56;4992489;28;20455;-72
2020/12/27 05:55:28;;;;;;;7.20;6.53;;;;;;;-4.87;99.49;97317.88;4986876;28;20463;-72
2020/12/27 05:57:55;;;;;;;7.13;6.53;;;;;;;-4.80;99.26;97305.44;4986514;28;20452;-73
2020/12/27 06:00:24;;;;;;;6.80;5.97;;;;;;;-4.82;99.45;97294.34;4993545;28;20452;-73
2020/12/27 06:02:58;;;;;;;7.03;6.13;;;;;;;-4.85;99.53;97292.78;4991868;28;20556;-73
2020/12/27 06:06:10;;;;;;;7.63;6.93;;;;;;;-4.79;98.73;97301.94;4990279;28;20848;-73
2020/12/27 06:09:05;;;;;;;6.33;5.80;;;;;;;-4.81;99.19;97303.78;4976311;28;20510;-75
2020/12/27 06:11:48;;;;;;;6.73;6.17;;;;;;;-4.80;99.35;97295.09;4981335;28;20499;-74
2020/12/27 06:14:39;;;;;;;6.60;6.00;;;;;;;-4.91;99.87;97287.97;4994404;28;20437;-74
2020/12/27 06:17:12;;;;;;;7.43;6.67;;;;;;;-4.79;99.53;97291.59;4985370;28;20445;-73
2020/12/27 06:19:49;;;;;;;7.53;6.83;;;;;;;-4.82;98.56;97284.00;4987679;28;20471;-73
2020/12/27 06:22:20;;;;;;;7.37;6.70;;;;;;;-4.80;98.83;97287.34;4987885;28;20445;-72
2020/12/27 06:24:51;;;;;;;7.20;6.30;;;;;;;-4.80;98.83;97271.84;4986553;28;20457;-69
2020/12/27 06:27:18;;;;;;;6.67;5.97;;;;;;;-4.75;98.02;97267.22;4991110;28;20749;-70
2020/12/27 06:29:51;;;;;;;9.43;8.43;;;;;;;-4.83;99.27;97259.06;4991824;28;20488;-72
2020/12/27 06:32:24;;;;;;;6.77;6.17;;;;;;;-4.81;98.96;97258.09;4989439;28;20448;-73
2020/12/27 06:34:52;;;;;;;6.83;6.23;;;;;;;-4.77;97.43;97247.56;4998529;28;20845;-70
2020/12/27 06:37:19;;;;;;;8.07;7.30;;;;;;;-4.87;98.20;97227.41;4993634;28;20463;-72
2020/12/27 06:39:48;;;;;;;7.07;6.37;;;;;;;-4.81;97.59;97227.06;4994372;28;20656;-72
2020/12/27 06:42:16;;;;;;;9.00;6.83;;;;;;;-4.89;97.57;97215.50;4991886;28;20437;-71
2020/12/27 06:44:45;;;;;;;8.43;7.67;;;;;;;-4.81;97.69;97205.53;4994603;28;20440;-73
2020/12/27 06:47:13;;;;;;;7.27;6.30;;;;;;;-4.77;97.15;97201.03;4989927;28;20810;-71
2020/12/27 06:49:41;;;;;;;7.83;7.23;;;;;;;-4.77;96.47;97196.69;4995401;28;20968;-71
2020/12/27 06:52:21;;;;;;;7.23;6.53;;;;;;;-4.82;96.21;97189.22;4988391;28;20468;-72
2020/12/27 06:54:51;;;;;;;6.77;6.17;;;;;;;-4.76;96.30;97180.25;4987657;28;20439;-72
2020/12/27 06:57:40;;;;;;;7.17;6.47;;;;;;;-4.83;96.38;97164.28;4994056;28;20453;-70
2020/12/27 07:00:28;;;;;;;6.60;6.00;;;;;;;-4.81;96.42;97164.19;4987800;28;20571;-72
2020/12/27 07:03:06;;;;;;;6.33;5.83;;;;;;;-4.79;95.40;97157.16;4988737;28;20448;-72
2020/12/27 07:05:34;;;;;;;5.73;5.27;;;;;;;-4.80;95.45;97137.41;4988492;28;20453;-71
2020/12/27 07:08:03;;;;;;;5.60;5.10;;;;;;;-4.83;95.50;97137.59;4985007;28;20453;-72
2020/12/27 07:10:33;;;;;;;5.57;5.17;;;;;;;-4.75;94.56;97131.97;4988426;28;20490;-71
2020/12/27 07:13:08;;;;;;;6.73;6.13;;;;;;;-4.69;93.55;97129.03;4987025;28;20460;-71
2020/12/27 07:15:35;;;;;;;5.80;5.27;;;;;;;-4.73;94.37;97110.28;4988602;28;20451;-72
2020/12/27 07:18:07;;;;;;;5.83;5.40;;;;;;;-4.68;93.55;97105.69;4987796;28;21150;-70
2020/12/27 07:20:34;;;;;;;5.43;5.03;;;;;;;-4.73;93.77;97093.94;4994192;28;20461;-71
2020/12/27 07:23:01;;;;;;;5.80;5.30;;;;;;;-4.73;93.57;97093.94;4988010;28;20460;-70
2020/12/27 07:25:29;;;;;;;5.77;4.77;;;;;;;-4.73;93.19;97092.19;4984640;28;20464;-72
2020/12/27 07:27:59;;;;;;;5.17;4.77;;;;;;;-4.63;92.47;97086.47;4990015;28;20486;-73
2020/12/27 07:30:26;;;;;;;5.33;4.93;;;;;;;-4.65;91.87;97083.97;4989659;28;20507;-71
2020/12/27 07:32:54;;;;;;;6.53;5.40;;;;;;;-4.64;92.49;97067.53;4988717;28;20570;-72
2020/12/27 07:35:24;;;;;;;6.30;5.73;;;;;;;-4.62;91.89;97063.09;4996211;28;20574;-71
2020/12/27 07:38:00;;;;;;;6.60;4.90;;;;;;;-4.54;91.45;97068.66;4998273;28;20483;-70
2020/12/27 07:40:31;;;;;;;5.63;5.13;;;;;;;-4.61;91.80;97072.53;4992317;28;20466;-71
2020/12/27 07:43:00;;;;;;;5.40;5.00;;;;;;;-4.48;91.07;97062.28;5015290;28;20458;-71
2020/12/27 07:45:30;;;;;;;5.53;5.03;;;;;;;-4.46;90.96;97055.25;5006543;28;20458;-72
2020/12/27 07:47:57;;;;;;;5.27;4.70;;;;;;;-4.44;89.91;97057.75;5012615;28;20460;-71
2020/12/27 07:50:25;;;;;;;5.80;5.30;;;;;;;-4.46;91.01;97049.25;5010611;28;20497;-71
2020/12/27 07:52:55;;;;;;;5.73;5.23;;;;;;;-4.40;90.31;97054.06;5008236;28;20473;-69
2020/12/27 07:55:24;;;;;;;6.37;5.70;;;;;;;-4.31;89.83;97060.44;5012419;28;20459;-71
2020/12/27 07:57:51;;;;;;;6.67;6.07;;;;;;;-4.39;89.91;97051.34;5010790;28;20480;-69
2020/12/27 08:00:23;;;;;;;6.90;6.30;;;;;;;-4.40;89.84;97039.34;5012936;28;20466;-72
2020/12/27 08:02:51;;;;;;;8.43;7.60;;;;;;;-4.33;89.93;97044.97;5015587;28;20451;-71
2020/12/27 08:05:18;;;;;;;6.93;6.33;;;;;;;-4.31;89.06;97037.16;5018163;28;21037;-71
2020/12/27 08:07:45;;;;;;;5.90;5.33;;;;;;;-4.32;89.69;97033.72;5008689;28;20567;-71
2020/12/27 08:10:20;;;;;;;8.57;6.03;;;;;;;-4.26;89.39;97022.16;5010319;28;20487;-71
2020/12/27 08:12:52;;;;;;;6.00;5.47;;;;;;;-4.22;88.38;97018.47;5008853;28;21078;-71
2020/12/27 08:15:20;;;;;;;6.17;5.57;;;;;;;-4.15;89.05;97019.72;5006285;28;20526;-70
2020/12/27 08:18:02;;;;;;;6.97;6.37;;;;;;;-4.11;89.05;97023.78;5009570;28;20455;-70
2020/12/27 08:20:30;;;;;;;8.17;7.47;;;;;;;-4.16;88.69;97018.06;5011159;28;20427;-71
2020/12/27 08:23:02;;;;;;;6.03;5.53;;;;;;;-4.04;87.95;97008.72;5006770;28;20451;-70
2020/12/27 08:25:29;;;;;;;5.33;4.93;;;;;;;-3.98;87.91;96997.13;5002567;28;20473;-72
2020/12/27 08:27:57;;;;;;;4.87;4.53;;;;;;;-3.98;89.55;96995.38;5006747;28;20990;-70
2020/12/27 08:30:25;;;;;;;5.63;5.13;;;;;;;-3.93;88.13;96985.56;5007132;28;20486;-70
2020/12/27 08:33:13;;;;;;;5.83;5.23;;;;;;;-3.94;87.30;96983.06;5007581;28;20973;-70
2020/12/27 08:35:42;;;;;;;6.37;5.17;;;;;;;-3.90;87.79;96970.75;5009701;28;20456;-70
2020/12/27 08:38:18;;;;;;;5.83;5.33;;;;;;;-3.98;87.52;96971.22;5010689;28;20460;-69
2020/12/27 08:40:47;;;;;;;4.80;4.40;;;;;;;-3.90;87.39;96969.00;5012592;28;20912;-70
2020/12/27 08:43:20;;;;;;;5.43;5.03;;;;;;;-3.81;87.45;96968.41;5006577;28;20455;-69
2020/12/27 08:45:57;;;;;;;5.90;5.40;;;;;;;-3.79;87.35;96955.34;5006154;28;20448;-72
2020/12/27 08:48:30;;;;;;;5.57;4.40;;;;;;;-3.62;86.29;96956.81;5011540;28;20462;-71
2020/12/27 08:50:58;;;;;;;6.40;5.90;;;;;;;-3.65;86.22;96942.34;5007315;28;20569;-72
2020/12/27 08:53:25;;;;;;;5.27;4.87;;;;;;;-3.59;86.63;96933.34;5012198;28;20451;-73
2020/12/27 08:55:52;;;;;;;5.80;5.30;;;;;;;-3.71;86.16;96931.53;5011559;28;20461;-71
2020/12/27 08:58:22;;;;;;;5.60;5.20;;;;;;;-3.53;85.68;96932.09;5011351;28;20569;-71
2020/12/27 09:00:48;;;;;;;5.03;4.70;;;;;;;-3.43;85.57;96915.00;5016964;28;20444;-71
2020/12/27 09:03:16;;;;;;;6.47;5.97;;;;;;;-3.47;84.59;96918.72;5013685;28;21007;-72
2020/12/27 09:05:44;;;;;;;6.00;5.50;;;;;;;-3.35;85.39;96915.31;5014996;28;20944;-71
2020/12/27 09:08:15;;;;;;;6.70;5.97;;;;;;;-3.35;85.04;96914.47;5016952;28;20928;-72
2020/12/27 09:10:42;;;;;;;5.50;5.00;;;;;;;-3.26;84.34;96915.63;5013917;28;20483;-73
2020/12/27 09:13:11;;;;;;;6.90;4.20;;;;;;;-3.12;83.57;96912.09;5014825;28;20464;-71
2020/12/27 09:15:39;;;;;;;4.83;4.37;;;;;;;-3.16;83.30;96916.66;5012354;28;20452;-70
2020/12/27 09:18:08;;;;;;;4.77;4.43;;;;;;;-3.12;84.27;96920.69;5015498;28;20447;-70
2020/12/27 09:20:38;;;;;;;4.73;4.33;;;;;;;-3.04;83.96;96909.81;5009437;28;20455;-71
2020/12/27 09:23:12;;;;;;;4.50;4.10;;;;;;;-2.83;82.98;96898.91;5013487;28;20466;-73
2020/12/27 09:25:40;;;;;;;6.43;5.30;;;;;;;-2.80;82.96;96901.28;5012955;28;20458;-70
2020/12/27 09:28:14;;;;;;;5.37;4.70;;;;;;;-2.59;85.17;96898.09;5019362;28;20459;-70
2020/12/27 09:30:42;;;;;;;4.50;4.10;;;;;;;-2.48;83.07;96883.44;5016486;28;20497;-72
2020/12/27 09:33:09;;;;;;;5.27;4.83;;;;;;;-2.59;82.09;96879.94;5019220;28;20447;-71
2020/12/27 09:35:37;;;;;;;5.40;5.00;;;;;;;-2.49;82.72;96866.19;5014656;28;20436;-72
2020/12/27 09:38:24;;;;;;;4.90;4.50;;;;;;;-2.51;82.21;96847.31;5012474;28;20788;-73
2020/12/27 09:41:05;;;;;;;4.33;4.03;;;;;;;-2.37;80.44;96854.13;5013758;28;20598;-73
2020/12/27 09:43:32;;;;;;;4.43;4.13;;;;;;;-2.36;81.68;96857.53;5012564;28;20439;-72
2020/12/27 09:45:59;;;;;;;7.07;4.50;;;;;;;-2.37;82.08;96841.13;5012389;28;20447;-72
2020/12/27 09:48:31;;;;;;;4.57;4.17;;;;;;;-2.32;82.35;96840.78;5013509;28;20839;-71
2020/12/27 09:50:58;;;;;;;4.70;4.30;;;;;;;-2.35;81.17;96828.03;5006258;28;21905;-72
2020/12/27 09:53:26;;;;;;;4.20;3.80;;;;;;;-2.37;80.83;96828.16;5015804;28;20940;-72
2020/12/27 09:55:53;;;;;;;4.80;4.37;;;;;;;-2.21;80.78;96819.25;5014568;28;20807;-72
2020/12/27 09:58:20;;;;;;;4.73;4.30;;;;;;;-2.21;80.04;96814.91;5019178;28;20479;-70
2020/12/27 10:00:47;;;;;;;4.43;4.03;;;;;;;-2.24;79.53;96799.56;5013282;28;20796;-72
2020/12/27 10:03:15;;;;;;;4.27;3.97;;;;;;;-2.17;78.72;96779.13;5017070;28;20447;-72
2020/12/27 10:05:42;;;;;;;5.37;4.83;;;;;;;-2.13;78.69;96772.78;5013090;28;20450;-72
2020/12/27 10:08:09;;;;;;;11.47;8.80;;;;;;;-2.02;78.41;96771.16;5014850;28;20452;-71
2020/12/27 10:10:54;;;;;;;5.67;5.17;;;;;;;-1.79;77.18;96757.25;5013775;28;21026;-70
2020/12/27 10:13:21;;;;;;;6.20;5.60;;;;;;;-1.73;76.31;96740.38;5012792;28;20454;-74
2020/12/27 10:15:48;;;;;;;4.80;4.40;;;;;;;-1.71;75.04;96730.69;5013563;28;20975;-73
2020/12/27 10:18:15;;;;;;;5.00;4.60;;;;;;;-1.61;75.23;96716.03;5014648;28;20467;-71
2020/12/27 10:20:42;;;;;;;4.50;4.20;;;;;;;-1.58;74.58;96715.00;5006700;28;20440;-71
2020/12/27 10:23:09;;;;;;;4.60;4.30;;;;;;;-1.58;73.41;96727.97;5007062;28;20468;-74
2020/12/27 10:25:36;;;;;;;4.60;4.17;;;;;;;-1.61;73.47;96712.63;5011068;28;20445;-73
2020/12/27 10:28:04;;;;;;;4.57;4.27;;;;;;;-1.57;73.35;96708.84;5005660;28;20464;-73
2020/12/27 10:30:31;;;;;;;5.33;4.83;;;;;;;-1.42;73.23;96709.41;5006756;28;20482;-73
2020/12/27 10:33:02;;;;;;;4.23;4.03;;;;;;;-1.31;73.71;96699.00;5012339;28;20440;-76
2020/12/27 10:35:28;;;;;;;5.20;4.57;;;;;;;-1.29;72.60;96690.25;5011035;28;21018;-74
2020/12/27 10:37:55;;;;;;;6.33;5.67;;;;;;;-1.20;71.58;96689.50;5011482;28;20983;-74
2020/12/27 10:40:22;;;;;;;4.97;4.57;;;;;;;-1.25;71.95;96681.25;5008224;28;20459;-73
2020/12/27 10:42:49;;;;;;;4.43;4.13;;;;;;;-1.15;71.84;96682.16;5013766;28;20216;-74
2020/12/27 10:45:17;;;;;;;4.37;4.03;;;;;;;-1.17;70.97;96658.91;5012442;28;20451;-74
2020/12/27 10:47:44;;;;;;;3.87;3.57;;;;;;;-1.12;70.65;96660.31;5011120;28;20467;-71
2020/12/27 10:50:11;;;;;;;3.43;3.23;;;;;;;-1.08;70.61;96638.31;5011039;28;20481;-73
2020/12/27 10:52:38;;;;;;;3.97;3.67;;;;;;;-1.03;69.19;96631.78;5013019;28;20205;-71
2020/12/27 10:55:05;;;;;;;4.13;3.73;;;;;;;-1.01;69.38;96629.03;5008455;28;20805;-73
2020/12/27 10:57:32;;;;;;;3.47;3.17;;;;;;;-0.81;69.64;96624.00;5009803;28;20466;-73
2020/12/27 10:59:59;;;;;;;3.70;3.30;;;;;;;-0.75;69.26;96611.31;5007636;28;20870;-72
2020/12/27 11:02:27;;;;;;;3.50;3.30;;;;;;;-0.83;68.37;96602.50;5012672;28;20805;-71
2020/12/27 11:04:54;;;;;;;3.80;3.50;;;;;;;-0.82;68.66;96588.53;5009236;28;20715;-73
2020/12/27 11:07:30;;;;;;;3.17;2.97;;;;;;;-0.68;67.72;96577.78;5010022;28;20795;-73
2020/12/27 11:09:59;;;;;;;3.70;3.47;;;;;;;-0.74;68.02;96560.94;5009384;28;20472;-73
2020/12/27 11:12:26;;;;;;;3.10;2.90;;;;;;;-0.76;68.92;96562.84;5012225;28;20345;-74
2020/12/27 11:14:53;;;;;;;3.80;3.43;;;;;;;-0.53;67.73;96554.88;5007823;28;20286;-75
2020/12/27 11:17:20;;;;;;;2.93;2.73;;;;;;;-0.40;67.14;96546.00;5006602;28;20212;-71
2020/12/27 11:19:48;;;;;;;3.60;3.40;;;;;;;-0.53;67.18;96548.84;5010542;28;20491;-73
2020/12/27 11:22:15;;;;;;;4.63;3.27;;;;;;;-0.57;66.98;96531.81;5008791;28;20209;-73
2020/12/27 11:24:42;;;;;;;4.70;3.77;;;;;;;-0.51;66.01;96526.13;5011127;28;20208;-72
2020/12/27 11:27:09;;;;;;;8.13;5.90;;;;;;;-0.57;67.32;96509.25;5009591;28;21008;-72
2020/12/27 11:29:36;;;;;;;5.70;4.30;;;;;;;-0.65;66.88;96496.88;5010988;28;20548;-73
2020/12/27 11:32:03;;;;;;;7.27;5.87;;;;;;;-0.54;67.39;96489.97;5003873;28;20691;-71
2020/12/27 11:34:30;;;;;;;5.13;4.63;;;;;;;-0.52;66.98;96475.03;5012729;28;20455;-74
2020/12/27 11:36:58;;;;;;;7.37;6.10;;;;;;;-0.45;66.75;96471.75;5008915;28;20219;-73